Main page
Satellite images 10-day forecastsClimateMarine weather Cyclones Lightning AirportsFAQ Newsletter About
Weather : Europe Africa North America South America Asia Australia-Oceania Others
Languages Contact

London, England

London City Airport

latitude: 51-30N, longitude: 000-03E, elevation: 5 m


METAR: EGLC 022250Z AUTO 31005KT 9999 NCD 19/13 Q1024
TAF: EGLC 021706Z 0218/0221 24006KT 9999 FEW025

Time: 00:07 (23:07 UTC)

Current weather observation

The report was made 17 minutes ago, at 22:50 UTC
Wind 5 kt from the Northwest
Temperature 19°C
Humidity 68%
Pressure 1024 hPa
Visibility 10 km or more

Change units

Forecast

The report was made 6 hours and 1 minutes ago, at 17:06 UTC
Forecast valid from 02 at 18 UTC to 02 at 21 UTC
Wind 6 kt from the West/Southwest
Visibility 10 km or more
Few clouds at a height of 2500 ft
The information on this site is subject to a disclaimer
Weather : Europe Africa North America South America Asia Australia-Oceania Others
Satellite images 10-day forecastsClimateMarine weather Cyclones Lightning AirportsFAQ Languages Contact Newsletter About